• Join FlightAware (Why Join?)
  • Login
  • US Flag 
02:52PM EDT


 

Airport Tracker/Info


-or-


 

Live Flight TrackerFlight Track Log ✈ SKW6492 ✈ 11-May-2013 ✈ KDEN - KCOD

Flight Track Log - Related Links

Times and Time Zones

All times are in EDT time to prevent confusion due to time zone crossing. See the SKW6492 flight status page for this flight to view local times or setup timezone preferences in your user account.

Time Position Orientation Groundspeed Altitude Reporting Facility
EDT Latitude Longitude Course Direction KTS MPH feet Rate Location/Type
09:23PM 39.8833 -104.6167 90° East 171 197 6,400  Level Denver TRACON
09:24PM 39.8833 -104.5333 90° East 224 258 7,900 1,920 Climbing Denver TRACON
09:25PM 39.9333 -104.4833 37° Northeast 263 303 9,900 2,220 Climbing Denver TRACON
09:26PM 40.0167 -104.5167 343° North 276 318 12,400 2,340 Climbing Denver TRACON
09:27PM 40.0833 -104.5500 339° North 270 311 15,100 1,860 Climbing Denver TRACON
09:28PM 40.1856 -104.5978 340° North 303 349 16,800 1,500 Climbing Denver Center
09:29PM 40.2736 -104.6350 342° North 308 354 18,600 1,560 Climbing Denver Center
09:30PM 40.3592 -104.6706 342° North 322 371 20,400 1,680 Climbing Denver Center
09:31PM 40.4608 -104.7142 342° North 316 364 22,400 1,620 Climbing Denver Center
09:33PM 40.5475 -104.7503 342° North 328 377 23,800 1,260 Climbing Denver Center
09:34PM 40.6342 -104.7861 343° North 329 379 25,100 1,080 Climbing Denver Center
09:35PM 40.7086 -104.8172 342° North 333 383 26,100 1,020 Climbing Denver Center
09:36PM 40.8139 -104.8622 342° North 329 379 27,300 1,020 Climbing Denver Center
09:37PM 40.8992 -104.9047 339° North 341 392 28,200 960 Climbing Denver Center
09:38PM 40.9947 -104.9697 333° Northwest 347 399 29,300 960 Climbing Denver Center
09:39PM 41.0664 -105.0458 321° Northwest 347 399 30,200 780 Climbing Denver Center
09:40PM 41.1514 -105.1356 322° Northwest 348 400 30,900 540 Climbing Denver Center
09:41PM 41.2253 -105.2147 321° Northwest 355 409 31,400 480 Climbing Denver Center
09:42PM 41.3006 -105.2956 321° Northwest 360 414 32,000 240 Climbing Denver Center
09:43PM 41.3892 -105.3917 321° Northwest 366 421 32,000  Level Denver Center
09:44PM 41.4636 -105.4722 321° Northwest 361 415 32,000  Level Denver Center
09:45PM 41.5494 -105.5661 321° Northwest 357 411 32,000  Level Denver Center
09:46PM 41.6239 -105.6478 321° Northwest 358 412 32,000  Level Denver Center
09:47PM 41.6992 -105.7306 321° Northwest 362 417 32,000  Level Denver Center
09:48PM 41.7861 -105.8275 320° Northwest 364 419 32,000  Level Denver Center
09:49PM 41.8611 -105.9089 321° Northwest 362 417 32,000  Level Denver Center
09:50PM 41.9358 -105.9900 321° Northwest 361 415 32,000  Level Denver Center
09:51PM 42.0225 -106.0867 320° Northwest 362 417 32,000  Level Denver Center
09:52PM 42.0964 -106.1681 321° Northwest 360 414 32,000  Level Denver Center
09:53PM 42.1822 -106.2656 320° Northwest 363 418 32,000  Level Denver Center
09:54PM 42.2561 -106.3486 320° Northwest 363 418 32,000  Level Denver Center
09:55PM 42.3306 -106.4339 320° Northwest 365 420 32,000  Level Denver Center
09:56PM 42.4186 -106.5311 321° Northwest 366 421 32,000  Level Denver Center
09:57PM 42.4931 -106.6156 320° Northwest 366 421 32,000  Level Denver Center
09:58PM 42.5806 -106.7158 320° Northwest 370 426 32,000  Level Denver Center
09:59PM 42.6547 -106.8017 320° Northwest 368 423 32,000  Level Denver Center
10:00PM 42.7303 -106.8867 320° Northwest 368 423 32,000  Level Denver Center
10:01PM 42.8172 -106.9875 320° Northwest 370 426 32,000  Level Denver Center
10:02PM 42.8917 -107.0728 320° Northwest 369 425 32,000  Level Denver Center
10:03PM 42.9664 -107.1592 320° Northwest 368 423 32,000  Level Denver Center
10:04PM 43.0556 -107.2628 320° Northwest 374 430 32,000  Level Denver Center
10:05PM 43.1300 -107.3503 319° Northwest 371 427 32,000  Level Denver Center
10:06PM 43.2181 -107.4528 320° Northwest 374 430 32,000  Level Denver Center
10:07PM 43.2931 -107.5422 319° Northwest 374 430 32,000  Level Denver Center
10:08PM 43.3806 -107.6469 319° Northwest 374 430 32,000  Level Salt Lake Center
10:09PM 43.4567 -107.7356 320° Northwest 373 429 32,000 -600 Level Salt Lake Center
10:10PM 43.5317 -107.8250 319° Northwest 373 429 30,800 -1,620 Descending Salt Lake Center
10:11PM 43.6161 -107.9250 319° Northwest 359 413 28,800 -1,860 Descending Salt Lake Center
10:12PM 43.6844 -108.0061 319° Northwest 342 394 27,100 -1,740 Descending Salt Lake Center
10:13PM 43.7506 -108.0853 319° Northwest 330 380 25,300 -1,920 Descending Salt Lake Center
10:14PM 43.8283 -108.1797 319° Northwest 332 382 23,300 -1,860 Descending Salt Lake Center
10:15PM 43.8919 -108.2547 320° Northwest 315 362 21,600 -1,860 Descending Salt Lake Center
10:16PM 43.9625 -108.3439 318° Northwest 310 357 19,600 -1,920 Descending Salt Lake Center
10:17PM 44.0211 -108.4150 319° Northwest 302 348 17,800 -1,680 Descending Salt Lake Center
10:19PM 44.0794 -108.4844 319° Northwest 295 339 16,300 -1,740 Descending Salt Lake Center
10:20PM 44.1450 -108.5639 319° Northwest 287 330 14,300 -1,920 Descending Salt Lake Center
10:21PM 44.1994 -108.6306 319° Northwest 280 322 12,500 -1,740 Descending Salt Lake Center
10:22PM 44.2544 -108.6983 319° Northwest 276 318 10,800 -1,500 Descending Salt Lake Center
10:23PM 44.3222 -108.7675 324° Northwest 276 318 9,500 -1,320 Descending Salt Lake Center
10:24PM 44.3861 -108.8067 336° Northwest 267 307 8,200 -780 Descending Salt Lake Center
10:25PM 44.4497 -108.8447 337° Northwest 262 302 8,000 -60 Descending Salt Lake Center
10:26PM 44.5242 -108.8903 336° Northwest 261 300 8,100 -360 Climbing Salt Lake Center
10:27PM 44.5689 -108.9247 331° Northwest 229 264 7,300 -960 Descending Salt Lake Center
10:28PM 44.5544 -108.9711 246° West 178 205 6,200 -1,140 Descending Salt Lake Center